Dati Storici

Data ora Umidita' aria (%) Temperatura aria (°C) Rad globale (W/m²) Gonioanemometro (°) Tacoanemometro (m/s) Pioggia (mm)
08-11-2012 10:50 65.6 % 9.358 356.151 53.201 1.545 0
08-11-2012 10:40 67.3 % 8.516 348.061 60.401 1.139 0
08-11-2012 10:30 67.6 % 8.098 317.19 19.567 1.032 0
08-11-2012 10:20 67.8 % 7.912 103.246 24.662 2.371 0
08-11-2012 10:10 69.3 % 8 286.418 47.005 1.385 0
08-11-2012 10:00 70.6 % 7.298 258.981 31.337 1.117 0
08-11-2012 09:50 71.6 % 7.026 171.215 278.9 0.291 0
08-11-2012 09:40 72.3 % 7.287 217.738 13.158 1.028 0
08-11-2012 09:30 73.1 % 6.685 201.019 39.596 1.261 0
08-11-2012 09:20 74.4 % 6.4 171.032 35.381 1.308 0
08-11-2012 09:10 75.7 % 6.07 148.39 20.708 1.688 0
08-11-2012 09:00 77 % 5.924 129.641 43.086 1.437 0
08-11-2012 08:50 79.2 % 5.657 103.653 16.176 0.811 0
08-11-2012 08:40 81.5 % 5.208 78.914 15.035 0.306 0
08-11-2012 08:30 83.3 % 4.679 53.76 7.299 0.755 0
08-11-2012 08:20 83.8 % 4.351 30.706 78.367 0.362 0
08-11-2012 08:10 84.3 % 4.294 16.208 38.565 0.678 0
08-11-2012 08:00 83.5 % 4.254 6.265 122.709 0.018 0
08-11-2012 07:50 83.5 % 4.421 3.238 46.495 0.479 0
08-11-2012 07:40 83.2 % 4.524 1.622 35.329 0.971 0

I dati sono presentati in modo automatico a scopo informativo. In seguito a verifica i dati possono subire modifiche o essere invalidati e non riportati negli archivi definitivi.